RJOF

Details ICAO RJOF
Name HOFU
Region Japan
Timezone Asia/Tokyo (UTC+9.0)
Plans Departing 0
Arriving 0
Stats Elevation 7 ft / 2 m (AMSL)
Location 34.034285° 131.546979°
Runways 2
Magnetic Variation 7.594° W
Sunrise 2017-12-16 22:14:22 UTC / 2017-12-17 07:14:22 Local
Sunset 2017-12-17 08:07:54 UTC / 2017-12-17 17:07:54 Local
Advertisement - Login to hide

Runways

ID Width Length Bearing (true) Bearing (mag) Surface Threshold Offset Overrun Length
01 197 ft / 60 m 3,862 ft / 1,177 m 359.38° 6.97° Asphalt 0 ft / 0 m 200 ft / 61 m
12 148 ft / 45 m 4,861 ft / 1,482 m 108.73° 116.32° Concrete 0 ft / 0 m 200 ft / 61 m
19 197 ft / 60 m 3,862 ft / 1,177 m 179.38° 186.97° Asphalt 0 ft / 0 m 200 ft / 61 m
30 148 ft / 45 m 4,861 ft / 1,482 m 288.74° 296.33° Concrete 0 ft / 0 m 200 ft / 61 m

Map

Weather


0- 5 10 15 20 25 30 35+ Temperature / ° C

Clouds and Precipitation
Forecast for 2017-12-16 18:00 UTC. Updated 2 hours ago

Ground ~20,000 ft ~40,000 ft Winds

METAR

RJOF 161626Z 30016G29KT 9999 FEW025 03/M07 Q1023 RMK 1CU025 A3024

TAF

Not found

Frequencies

Ground 133.00 MHz GND
Tower 126.20 MHz TWR
Warning: Do not use this data for real-world aviation or navigation. No guarantee of current accuracy is given.